Time;durP1;ratioP1;P1;durP2;ratioP2;P2;SDS_P1;SDS_P2;PMS_P1;PMS_P2;Temp;Humidity;BMP_temperature;BMP_pressure;BME280_temperature;BME280_humidity;BME280_pressure;Samples;Min_cycle;Max_cycle;Signal;HPM_P1;HPM_P2
2023/05/06 00:00:51;;;;;;;;;;;13.10;94.50;;;;;;5048378;28;19915;-69
2023/05/06 00:03:16;;;;;;;;;;;13.10;94.50;;;;;;5048356;28;20417;-68
2023/05/06 00:05:42;;;;;;;;;;;13.10;94.60;;;;;;5048261;28;19913;-68
2023/05/06 00:08:07;;;;;;;;;;;13.10;94.60;;;;;;5048334;28;19916;-69
2023/05/06 00:10:33;;;;;;;;;;;13.10;94.60;;;;;;5047761;28;19913;-68
2023/05/06 00:12:58;;;;;;;;;;;13.10;94.60;;;;;;5047822;28;19995;-68
2023/05/06 00:15:24;;;;;;;;;;;13.00;94.50;;;;;;5048161;28;19921;-68
2023/05/06 00:17:49;;;;;;;;;;;13.10;94.60;;;;;;5047822;28;19917;-68
2023/05/06 00:20:15;;;;;;;;;;;13.00;94.60;;;;;;5047884;28;19920;-68
2023/05/06 00:22:40;;;;;;;;;;;13.00;94.70;;;;;;5047821;28;19928;-68
2023/05/06 00:25:06;;;;;;;;;;;13.00;94.70;;;;;;5047881;28;20805;-68
2023/05/06 00:27:32;;;;;;;;;;;13.00;94.70;;;;;;5047898;28;20273;-68
2023/05/06 00:29:57;;;;;;;;;;;13.00;94.80;;;;;;5047967;28;20412;-68
2023/05/06 00:32:23;;;;;;;;;;;13.00;94.80;;;;;;5047600;28;20493;-69
2023/05/06 00:34:49;;;;;;;;;;;12.90;94.80;;;;;;5030056;28;19913;-69
2023/05/06 00:37:14;;;;;;;;;;;12.90;94.80;;;;;;5047881;28;19982;-68
2023/05/06 00:39:40;;;;;;;;;;;12.90;94.80;;;;;;5047833;28;20322;-68
2023/05/06 00:42:05;;;;;;;;;;;12.90;94.80;;;;;;5047159;28;20629;-68
2023/05/06 00:44:31;;;;;;;;;;;12.90;94.90;;;;;;5029836;28;19957;-69
2023/05/06 00:46:57;;;;;;;;;;;12.90;94.90;;;;;;5047285;28;19917;-68
2023/05/06 00:49:23;;;;;;;;;;;12.90;94.80;;;;;;5047551;28;19913;-68
2023/05/06 00:51:49;;;;;;;;;;;12.90;94.80;;;;;;5047359;28;19999;-68
2023/05/06 00:54:15;;;;;;;;;;;12.80;94.90;;;;;;5044053;28;19913;-68
2023/05/06 00:56:40;;;;;;;;;;;12.80;94.90;;;;;;5046750;28;19937;-68
2023/05/06 00:59:06;;;;;;;;;;;12.80;94.90;;;;;;5047485;28;20380;-68
2023/05/06 01:01:32;;;;;;;;;;;12.80;95.20;;;;;;5042364;28;19999;-68
2023/05/06 01:03:57;;;;;;;;;;;12.80;94.90;;;;;;5029266;28;20370;-68
2023/05/06 01:06:32;;;;;;;;;;;12.70;94.90;;;;;;5047523;28;19913;-68
2023/05/06 01:09:07;;;;;;;;;;;12.70;94.90;;;;;;5047242;28;20437;-69
2023/05/06 01:11:36;;;;;;;;;;;12.70;95.00;;;;;;5029139;28;19924;-68
2023/05/06 01:14:09;;;;;;;;;;;12.70;94.90;;;;;;5046822;28;20445;-69
2023/05/06 01:16:38;;;;;;;;;;;12.70;94.90;;;;;;5047175;28;19935;-68
2023/05/06 01:19:05;;;;;;;;;;;12.70;94.90;;;;;;5047356;28;20679;-69
2023/05/06 01:21:33;;;;;;;;;;;12.70;94.90;;;;;;5047059;28;19999;-69
2023/05/06 01:23:59;;;;;;;;;;;12.60;95.00;;;;;;5029195;28;19971;-69
2023/05/06 01:26:25;;;;;;;;;;;12.60;95.00;;;;;;5046856;28;19921;-69
2023/05/06 01:28:51;;;;;;;;;;;12.60;95.00;;;;;;5047085;28;19916;-69
2023/05/06 01:31:23;;;;;;;;;;;12.60;95.00;;;;;;5047085;28;20004;-69
2023/05/06 01:33:52;;;;;;;;;;;12.60;95.00;;;;;;5046929;28;20487;-69
2023/05/06 01:36:44;;;;;;;;;;;12.60;95.00;;;;;;5047270;28;19999;-69
2023/05/06 01:39:22;;;;;;;;;;;12.60;95.00;;;;;;5045117;28;19913;-68
2023/05/06 01:41:48;;;;;;;;;;;12.50;95.00;;;;;;5046511;28;19909;-69
2023/05/06 01:44:15;;;;;;;;;;;12.50;95.00;;;;;;5046957;28;19913;-69
2023/05/06 01:46:41;;;;;;;;;;;12.50;94.90;;;;;;5046670;28;19913;-68
2023/05/06 01:49:10;;;;;;;;;;;12.50;95.00;;;;;;5046926;28;19940;-69
2023/05/06 01:51:36;;;;;;;;;;;12.50;95.00;;;;;;5046942;28;19917;-69
2023/05/06 01:54:01;;;;;;;;;;;12.50;95.00;;;;;;5026724;28;19924;-69
2023/05/06 01:56:29;;;;;;;;;;;12.40;95.00;;;;;;5026246;28;19924;-69
2023/05/06 01:58:58;;;;;;;;;;;12.40;95.00;;;;;;5046949;28;19917;-69
2023/05/06 02:01:23;;;;;;;;;;;12.40;95.00;;;;;;5046714;28;19909;-69
2023/05/06 02:03:49;;;;;;;;;;;12.40;95.00;;;;;;5046433;28;19920;-69
2023/05/06 02:06:14;;;;;;;;;;;12.40;95.00;;;;;;5046671;28;20433;-69
2023/05/06 02:08:40;;;;;;;;;;;12.40;95.00;;;;;;5046323;28;20013;-69
2023/05/06 02:11:05;;;;;;;;;;;12.30;95.00;;;;;;5046436;28;19921;-69
2023/05/06 02:13:31;;;;;;;;;;;12.30;95.10;;;;;;5028048;28;19937;-69
2023/05/06 02:15:56;;;;;;;;;;;12.30;95.10;;;;;;5046219;28;19924;-69
2023/05/06 02:18:22;;;;;;;;;;;12.30;95.00;;;;;;5046032;28;19955;-69
2023/05/06 02:20:48;;;;;;;;;;;12.30;95.00;;;;;;5045935;28;20040;-69
2023/05/06 02:23:13;;;;;;;;;;;12.30;95.10;;;;;;5046251;28;19924;-69
2023/05/06 02:25:39;;;;;;;;;;;12.30;95.10;;;;;;5027718;28;20615;-69
2023/05/06 02:28:04;;;;;;;;;;;12.20;95.10;;;;;;5027850;28;20053;-69
2023/05/06 02:30:31;;;;;;;;;;;12.20;95.00;;;;;;5045549;28;19912;-69
2023/05/06 02:32:57;;;;;;;;;;;12.20;95.10;;;;;;5044806;28;19976;-69
2023/05/06 02:35:22;;;;;;;;;;;12.20;95.00;;;;;;5045952;28;19913;-69
2023/05/06 02:37:48;;;;;;;;;;;12.20;95.00;;;;;;5046188;28;19916;-69
2023/05/06 02:40:14;;;;;;;;;;;12.20;95.10;;;;;;5046071;28;19913;-69
2023/05/06 02:42:39;;;;;;;;;;;12.10;95.00;;;;;;5045573;28;19919;-69
2023/05/06 02:45:05;;;;;;;;;;;12.10;95.00;;;;;;5027937;28;20564;-69
2023/05/06 02:47:30;;;;;;;;;;;12.10;95.00;;;;;;5028106;28;19909;-69
2023/05/06 02:49:56;;;;;;;;;;;12.10;95.00;;;;;;5045867;28;19921;-69
2023/05/06 02:52:21;;;;;;;;;;;12.10;95.10;;;;;;5045526;28;20395;-69
2023/05/06 02:54:47;;;;;;;;;;;12.10;95.00;;;;;;5045582;28;20566;-69
2023/05/06 02:57:12;;;;;;;;;;;12.00;95.00;;;;;;5045399;28;19964;-69
2023/05/06 02:59:38;;;;;;;;;;;12.00;95.00;;;;;;5027971;28;19925;-69
2023/05/06 03:02:03;;;;;;;;;;;12.00;95.00;;;;;;5045314;28;19912;-69
2023/05/06 03:04:29;;;;;;;;;;;12.00;95.00;;;;;;5045734;28;19913;-69
2023/05/06 03:06:54;;;;;;;;;;;12.00;95.00;;;;;;5045832;28;19913;-69
2023/05/06 03:09:20;;;;;;;;;;;12.00;95.00;;;;;;5045852;28;20555;-69
2023/05/06 03:11:46;;;;;;;;;;;12.00;95.00;;;;;;5027482;28;19917;-69
2023/05/06 03:14:11;;;;;;;;;;;12.00;95.00;;;;;;5045479;28;19916;-69
2023/05/06 03:16:37;;;;;;;;;;;11.90;95.00;;;;;;5045445;28;19924;-69
2023/05/06 03:19:02;;;;;;;;;;;11.90;95.00;;;;;;5045480;28;20323;-69
2023/05/06 03:21:28;;;;;;;;;;;11.90;95.00;;;;;;5027455;28;19927;-69
2023/05/06 03:23:54;;;;;;;;;;;11.90;94.90;;;;;;5027376;28;20019;-69
2023/05/06 03:26:20;;;;;;;;;;;11.90;95.00;;;;;;5045424;28;19912;-69
2023/05/06 03:28:45;;;;;;;;;;;11.90;94.90;;;;;;5046114;28;19915;-69
2023/05/06 03:31:11;;;;;;;;;;;11.80;94.90;;;;;;5048806;28;19912;-69
2023/05/06 03:33:37;;;;;;;;;;;11.90;95.00;;;;;;5048609;28;20314;-69
2023/05/06 03:36:02;;;;;;;;;;;11.80;94.90;;;;;;5049098;28;19919;-69
2023/05/06 03:38:28;;;;;;;;;;;11.80;94.90;;;;;;5048951;28;19913;-69
2023/05/06 03:40:53;;;;;;;;;;;11.80;94.80;;;;;;5048753;28;19989;-69
2023/05/06 03:43:19;;;;;;;;;;;11.80;94.80;;;;;;5048976;28;19948;-69
2023/05/06 03:45:44;;;;;;;;;;;11.80;94.80;;;;;;5030986;28;20007;-69
2023/05/06 03:48:10;;;;;;;;;;;11.80;94.80;;;;;;5048723;28;19919;-69
2023/05/06 03:50:36;;;;;;;;;;;11.70;94.80;;;;;;5048987;28;19920;-69
2023/05/06 03:53:01;;;;;;;;;;;11.70;94.80;;;;;;5048591;28;19912;-69
2023/05/06 03:55:27;;;;;;;;;;;11.70;94.80;;;;;;5044455;28;19935;-69
2023/05/06 03:57:52;;;;;;;;;;;11.70;94.80;;;;;;5048688;28;20388;-69
2023/05/06 04:00:18;;;;;;;;;;;11.70;94.80;;;;;;5030488;28;19924;-69
2023/05/06 04:02:43;;;;;;;;;;;11.70;94.80;;;;;;5048546;28;20542;-69
2023/05/06 04:05:09;;;;;;;;;;;11.70;94.80;;;;;;5030814;28;20267;-69
2023/05/06 04:07:34;;;;;;;;;;;11.70;94.80;;;;;;5048486;28;19913;-69
2023/05/06 04:10:00;;;;;;;;;;;11.70;94.80;;;;;;5048352;28;20002;-69
2023/05/06 04:12:26;;;;;;;;;;;11.60;94.80;;;;;;5047924;28;19924;-69
2023/05/06 04:14:51;;;;;;;;;;;11.60;94.80;;;;;;5048556;27;19908;-69
2023/05/06 04:17:17;;;;;;;;;;;11.60;94.70;;;;;;5048308;28;19962;-69
2023/05/06 04:19:42;;;;;;;;;;;11.60;94.70;;;;;;5048085;28;20286;-69
2023/05/06 04:22:08;;;;;;;;;;;11.60;94.70;;;;;;5031278;28;19924;-69
2023/05/06 04:24:33;;;;;;;;;;;11.60;94.70;;;;;;5047043;28;19951;-69
2023/05/06 04:26:59;;;;;;;;;;;11.60;94.70;;;;;;5046955;28;19912;-69
2023/05/06 04:29:25;;;;;;;;;;;11.60;94.70;;;;;;5047178;28;19966;-69
2023/05/06 04:31:52;;;;;;;;;;;11.50;94.60;;;;;;5061914;28;20428;-69
2023/05/06 04:34:18;;;;;;;;;;;11.50;94.60;;;;;;5047236;28;19940;-69
2023/05/06 04:36:44;;;;;;;;;;;11.50;94.70;;;;;;5046895;28;19951;-69
2023/05/06 04:39:10;;;;;;;;;;;11.50;94.60;;;;;;5046892;28;19908;-69
2023/05/06 04:41:36;;;;;;;;;;;11.50;94.70;;;;;;5046253;28;19962;-69
2023/05/06 04:44:02;;;;;;;;;;;11.50;94.60;;;;;;5046662;28;19913;-69
2023/05/06 04:46:28;;;;;;;;;;;11.50;94.60;;;;;;5046961;28;19916;-69
2023/05/06 04:48:53;;;;;;;;;;;11.50;94.60;;;;;;5046730;28;19942;-69
2023/05/06 04:51:19;;;;;;;;;;;11.50;94.60;;;;;;5046106;28;20357;-69
2023/05/06 04:53:45;;;;;;;;;;;11.50;94.60;;;;;;5040220;28;19920;-69
2023/05/06 04:56:11;;;;;;;;;;;11.50;94.60;;;;;;5045570;28;20000;-69
2023/05/06 04:58:36;;;;;;;;;;;11.50;94.60;;;;;;5046288;28;20003;-69
2023/05/06 05:01:03;;;;;;;;;;;11.50;94.80;;;;;;5046563;28;19913;-69
2023/05/06 05:03:28;;;;;;;;;;;11.50;94.60;;;;;;5045792;28;20354;-69
2023/05/06 05:05:54;;;;;;;;;;;11.50;94.50;;;;;;5046085;28;19919;-69
2023/05/06 05:08:20;;;;;;;;;;;11.50;94.60;;;;;;5046034;28;19969;-69
2023/05/06 05:10:46;;;;;;;;;;;11.50;94.50;;;;;;5028305;28;19917;-69
2023/05/06 05:13:12;;;;;;;;;;;11.50;94.60;;;;;;5027823;28;20011;-69
2023/05/06 05:15:38;;;;;;;;;;;11.50;94.60;;;;;;5028565;28;19966;-69
2023/05/06 05:18:03;;;;;;;;;;;11.40;94.50;;;;;;5046726;28;19965;-69
2023/05/06 05:20:29;;;;;;;;;;;11.50;94.50;;;;;;5046877;28;20007;-69
2023/05/06 05:22:55;;;;;;;;;;;11.50;94.50;;;;;;4966338;28;1794803;-69
2023/05/06 05:25:20;;;;;;;;;;;11.50;94.40;;;;;;5047427;28;19993;-69
2023/05/06 05:27:46;;;;;;;;;;;11.50;94.50;;;;;;5047278;28;19912;-69
2023/05/06 05:30:12;;;;;;;;;;;11.50;94.50;;;;;;5047277;28;19908;-69
2023/05/06 05:32:37;;;;;;;;;;;11.60;94.50;;;;;;5046983;28;19960;-69
2023/05/06 05:35:03;;;;;;;;;;;11.50;94.40;;;;;;5047132;28;19916;-69
2023/05/06 05:37:30;;;;;;;;;;;11.50;94.50;;;;;;5047272;28;19948;-69
2023/05/06 05:39:55;;;;;;;;;;;11.50;94.40;;;;;;5047244;28;19916;-69
2023/05/06 05:42:21;;;;;;;;;;;11.50;94.50;;;;;;5046354;28;19909;-69
2023/05/06 05:44:46;;;;;;;;;;;11.50;94.50;;;;;;5029150;28;20350;-69
2023/05/06 05:47:12;;;;;;;;;;;11.50;94.50;;;;;;5047060;28;20357;-69
2023/05/06 05:49:38;;;;;;;;;;;11.60;94.60;;;;;;5029260;28;19916;-69
2023/05/06 05:52:03;;;;;;;;;;;11.60;94.50;;;;;;5045659;28;19972;-69
2023/05/06 05:54:29;;;;;;;;;;;11.50;94.50;;;;;;5046259;28;20254;-69
2023/05/06 05:56:54;;;;;;;;;;;11.60;94.50;;;;;;5046524;28;19958;-69
2023/05/06 05:59:20;;;;;;;;;;;11.60;94.50;;;;;;5046380;28;20459;-69
2023/05/06 06:01:45;;;;;;;;;;;11.60;94.50;;;;;;5046457;28;19919;-69
2023/05/06 06:04:11;;;;;;;;;;;11.70;94.60;;;;;;5046617;28;19916;-69
2023/05/06 06:06:36;;;;;;;;;;;11.70;94.50;;;;;;5046981;28;19913;-69
2023/05/06 06:09:02;;;;;;;;;;;11.70;94.60;;;;;;5046865;28;20338;-69
2023/05/06 06:11:27;;;;;;;;;;;11.70;94.50;;;;;;5046346;28;19956;-69
2023/05/06 06:13:53;;;;;;;;;;;11.70;94.50;;;;;;5046017;28;19913;-69
2023/05/06 06:16:18;;;;;;;;;;;11.70;94.50;;;;;;5045955;28;19948;-69
2023/05/06 06:18:44;;;;;;;;;;;11.70;94.50;;;;;;5046027;28;19912;-69
2023/05/06 06:21:09;;;;;;;;;;;11.70;94.50;;;;;;5045840;28;19920;-69
2023/05/06 06:23:35;;;;;;;;;;;11.80;94.50;;;;;;5046148;28;19913;-69
2023/05/06 06:26:03;;;;;;;;;;;11.80;94.50;;;;;;5046456;28;19917;-69
2023/05/06 06:28:30;;;;;;;;;;;11.80;94.50;;;;;;5028380;28;20419;-69
2023/05/06 06:30:55;;;;;;;;;;;11.80;94.40;;;;;;5046085;28;19920;-69
2023/05/06 06:33:21;;;;;;;;;;;11.80;94.30;;;;;;5045818;28;19917;-69
2023/05/06 06:35:46;;;;;;;;;;;11.80;94.20;;;;;;5046267;28;20315;-69
2023/05/06 06:38:12;;;;;;;;;;;11.80;94.20;;;;;;5045771;28;19913;-69
2023/05/06 06:40:37;;;;;;;;;;;11.80;94.20;;;;;;5028041;28;20442;-69
2023/05/06 06:43:03;;;;;;;;;;;11.80;94.10;;;;;;5027536;28;19909;-69
2023/05/06 06:45:28;;;;;;;;;;;11.80;94.10;;;;;;5045943;28;19908;-69
2023/05/06 06:47:54;;;;;;;;;;;11.90;94.10;;;;;;5045601;28;19917;-69
2023/05/06 06:50:19;;;;;;;;;;;11.90;94.00;;;;;;5045476;28;19912;-69
2023/05/06 06:52:45;;;;;;;;;;;11.90;94.00;;;;;;5045107;28;19917;-69
2023/05/06 06:55:10;;;;;;;;;;;11.90;93.90;;;;;;5044909;28;19909;-69
2023/05/06 06:57:39;;;;;;;;;;;11.90;93.80;;;;;;5044805;28;20146;-69
2023/05/06 07:00:05;;;;;;;;;;;12.00;93.80;;;;;;5035258;28;20389;-69
2023/05/06 07:02:30;;;;;;;;;;;12.00;93.80;;;;;;5044809;28;19940;-69
2023/05/06 07:04:55;;;;;;;;;;;12.00;93.80;;;;;;5045251;28;19988;-69
2023/05/06 07:07:21;;;;;;;;;;;12.00;93.80;;;;;;5045374;28;20357;-69
2023/05/06 07:09:46;;;;;;;;;;;12.00;93.80;;;;;;5045100;28;19917;-69
2023/05/06 07:12:12;;;;;;;;;;;12.00;93.70;;;;;;5044666;28;19923;-69
2023/05/06 07:14:37;;;;;;;;;;;12.00;93.70;;;;;;5045101;28;19913;-69
2023/05/06 07:17:03;;;;;;;;;;;12.10;93.60;;;;;;5044757;28;19924;-69
2023/05/06 07:19:30;;;;;;;;;;;12.10;93.60;;;;;;5045442;28;19999;-69
2023/05/06 07:21:55;;;;;;;;;;;12.10;93.60;;;;;;5027419;28;19927;-69
2023/05/06 07:24:21;;;;;;;;;;;12.20;93.50;;;;;;5045385;28;19913;-69
2023/05/06 07:26:46;;;;;;;;;;;12.20;93.50;;;;;;5044546;28;19912;-69
2023/05/06 07:29:12;;;;;;;;;;;12.20;93.40;;;;;;5044629;28;19915;-69
2023/05/06 07:31:38;;;;;;;;;;;12.20;93.40;;;;;;5044346;28;20258;-69
2023/05/06 07:34:03;;;;;;;;;;;12.30;93.30;;;;;;5044484;28;20598;-69
2023/05/06 07:36:34;;;;;;;;;;;12.30;93.30;;;;;;5044498;28;20404;-69
2023/05/06 07:38:59;;;;;;;;;;;12.30;93.30;;;;;;5044561;28;19965;-69
2023/05/06 07:41:25;;;;;;;;;;;12.30;93.30;;;;;;5044294;28;19917;-69
2023/05/06 07:43:50;;;;;;;;;;;12.40;93.20;;;;;;5043779;28;19913;-69
2023/05/06 07:46:16;;;;;;;;;;;12.40;93.20;;;;;;5035688;28;19940;-69
2023/05/06 07:48:41;;;;;;;;;;;12.40;93.20;;;;;;5043305;28;19920;-69
2023/05/06 07:51:07;;;;;;;;;;;12.50;93.10;;;;;;5043800;28;19973;-69
2023/05/06 07:53:32;;;;;;;;;;;12.50;93.10;;;;;;5043050;28;19913;-69
2023/05/06 07:56:00;;;;;;;;;;;12.50;93.10;;;;;;5024238;28;19919;-69
2023/05/06 07:58:29;;;;;;;;;;;12.50;93.00;;;;;;5043586;28;19913;-68
2023/05/06 08:00:55;;;;;;;;;;;12.60;93.10;;;;;;5044287;28;20003;-68
2023/05/06 08:03:20;;;;;;;;;;;12.60;93.10;;;;;;5043946;28;20008;-68
2023/05/06 08:05:46;;;;;;;;;;;12.60;93.00;;;;;;5044229;28;19917;-69
2023/05/06 08:08:11;;;;;;;;;;;12.70;93.10;;;;;;5044137;28;19908;-68
2023/05/06 08:10:37;;;;;;;;;;;12.70;93.20;;;;;;5043961;28;19909;-69
2023/05/06 08:13:02;;;;;;;;;;;12.70;93.00;;;;;;5043439;28;20033;-69
2023/05/06 08:15:28;;;;;;;;;;;12.70;93.10;;;;;;5045164;28;19981;-68
2023/05/06 08:17:54;;;;;;;;;;;12.80;92.90;;;;;;5047331;28;19912;-68
2023/05/06 08:20:20;;;;;;;;;;;12.80;93.00;;;;;;5029496;28;20663;-68
2023/05/06 08:22:45;;;;;;;;;;;12.80;92.80;;;;;;5046903;28;19920;-68
2023/05/06 08:25:11;;;;;;;;;;;12.90;93.00;;;;;;5047315;28;19909;-68
2023/05/06 08:27:36;;;;;;;;;;;12.90;93.00;;;;;;5047230;28;20281;-69
2023/05/06 08:30:02;;;;;;;;;;;12.90;92.90;;;;;;5047380;28;19909;-69
2023/05/06 08:32:27;;;;;;;;;;;13.00;92.90;;;;;;5046809;28;19944;-69
2023/05/06 08:34:53;;;;;;;;;;;13.00;93.00;;;;;;5036380;28;19919;-68
2023/05/06 08:37:18;;;;;;;;;;;13.00;93.20;;;;;;5043140;28;19992;-68
2023/05/06 08:39:44;;;;;;;;;;;13.10;93.00;;;;;;5046792;28;19955;-68
2023/05/06 08:42:13;;;;;;;;;;;13.20;92.80;;;;;;5042741;27;19947;-68
2023/05/06 08:44:38;;;;;;;;;;;13.30;92.80;;;;;;5046496;28;19915;-68
2023/05/06 08:47:04;;;;;;;;;;;13.40;92.70;;;;;;5046602;28;19912;-68
2023/05/06 08:49:29;;;;;;;;;;;13.40;92.60;;;;;;5047039;28;19964;-68
2023/05/06 08:51:55;;;;;;;;;;;13.40;92.80;;;;;;5046698;28;19970;-69
2023/05/06 08:54:23;;;;;;;;;;;13.50;92.60;;;;;;5043009;27;19917;-68
2023/05/06 08:56:52;;;;;;;;;;;13.50;92.40;;;;;;5046242;28;20023;-69
2023/05/06 08:59:22;;;;;;;;;;;13.70;92.80;;;;;;5046679;28;19921;-68
2023/05/06 09:01:48;;;;;;;;;;;13.80;92.40;;;;;;5046410;28;19913;-68
2023/05/06 09:04:15;;;;;;;;;;;13.80;92.60;;;;;;5046610;28;19909;-68
2023/05/06 09:06:40;;;;;;;;;;;14.00;92.50;;;;;;5046486;28;19913;-68
2023/05/06 09:09:06;;;;;;;;;;;14.00;92.60;;;;;;5048305;27;19913;-68
2023/05/06 09:11:31;;;;;;;;;;;14.00;92.40;;;;;;5071170;27;19965;-69
2023/05/06 09:14:06;;;;;;;;;;;14.10;92.80;;;;;;5043252;27;19925;-68
2023/05/06 09:16:32;;;;;;;;;;;14.10;92.30;;;;;;5076555;27;20064;-68
2023/05/06 09:18:58;;;;;;;;;;;14.20;92.40;;;;;;5046239;28;20396;-68
2023/05/06 09:21:34;;;;;;;;;;;14.30;92.10;;;;;;5045705;28;19925;-68
2023/05/06 09:23:59;;;;;;;;;;;14.40;92.00;;;;;;5045664;28;20024;-68
2023/05/06 09:26:26;;;;;;;;;;;14.50;91.70;;;;;;5044213;28;20065;-68
2023/05/06 09:28:51;;;;;;;;;;;14.50;92.00;;;;;;5045576;28;19913;-68
2023/05/06 09:31:17;;;;;;;;;;;14.60;91.80;;;;;;5046045;28;19913;-68
2023/05/06 09:33:42;;;;;;;;;;;14.70;91.90;;;;;;5045755;28;20269;-69
2023/05/06 09:36:12;;;;;;;;;;;14.70;91.70;;;;;;5046057;28;19920;-68
2023/05/06 09:38:40;;;;;;;;;;;14.80;91.70;;;;;;5045809;28;19917;-68
2023/05/06 09:41:06;;;;;;;;;;;14.80;91.60;;;;;;5046092;28;19909;-68
2023/05/06 09:43:32;;;;;;;;;;;14.80;91.80;;;;;;5027426;28;19913;-68
2023/05/06 09:46:00;;;;;;;;;;;15.00;92.00;;;;;;5045812;28;20611;-69
2023/05/06 09:48:29;;;;;;;;;;;15.00;91.60;;;;;;5045839;28;20308;-69
2023/05/06 09:50:55;;;;;;;;;;;15.10;91.40;;;;;;5045881;28;19912;-68
2023/05/06 09:53:21;;;;;;;;;;;15.20;91.20;;;;;;5041001;28;19925;-69
2023/05/06 09:55:47;;;;;;;;;;;15.30;91.20;;;;;;5044934;28;19917;-69
2023/05/06 09:58:13;;;;;;;;;;;15.40;91.30;;;;;;5045405;28;19913;-69
2023/05/06 10:00:39;;;;;;;;;;;15.40;91.00;;;;;;5045800;28;19912;-69
2023/05/06 10:03:05;;;;;;;;;;;15.50;91.10;;;;;;5045354;28;19913;-68
2023/05/06 10:05:31;;;;;;;;;;;15.50;91.00;;;;;;5027620;28;19913;-69
2023/05/06 10:07:57;;;;;;;;;;;15.50;90.90;;;;;;5045379;28;20109;-69
2023/05/06 10:10:23;;;;;;;;;;;15.60;91.10;;;;;;5045389;28;20379;-69
2023/05/06 10:12:48;;;;;;;;;;;15.60;91.10;;;;;;5026847;28;19955;-69
2023/05/06 10:15:14;;;;;;;;;;;15.80;91.00;;;;;;5045368;28;19956;-69
2023/05/06 10:17:40;;;;;;;;;;;15.80;90.90;;;;;;5045461;28;20561;-69
2023/05/06 10:20:08;;;;;;;;;;;15.80;91.10;;;;;;5027419;28;20612;-69
2023/05/06 10:22:33;;;;;;;;;;;15.80;91.10;;;;;;5044108;28;19927;-69
2023/05/06 10:25:03;;;;;;;;;;;15.80;91.60;;;;;;5044598;28;19929;-69
2023/05/06 10:27:29;;;;;;;;;;;15.80;91.40;;;;;;5044807;28;20011;-69
2023/05/06 10:29:57;;;;;;;;;;;15.90;91.50;;;;;;5045079;28;20577;-69
2023/05/06 10:32:25;;;;;;;;;;;15.90;91.30;;;;;;5026471;28;19940;-69
2023/05/06 10:34:53;;;;;;;;;;;16.00;91.30;;;;;;5044451;28;20432;-69
2023/05/06 10:37:19;;;;;;;;;;;16.20;91.10;;;;;;5044050;28;19913;-69
2023/05/06 10:39:45;;;;;;;;;;;16.30;91.00;;;;;;5025499;28;20499;-69
2023/05/06 10:42:11;;;;;;;;;;;16.40;90.80;;;;;;5043335;28;19981;-70
2023/05/06 10:44:58;;;;;;;;;;;16.50;91.00;;;;;;5044905;28;20389;-69
2023/05/06 10:47:24;;;;;;;;;;;16.50;90.90;;;;;;5044558;28;20015;-70
2023/05/06 10:50:08;;;;;;;;;;;16.60;91.00;;;;;;5044723;28;20012;-70
2023/05/06 10:52:43;;;;;;;;;;;16.70;91.00;;;;;;5044369;28;19924;-69
2023/05/06 10:55:36;;;;;;;;;;;16.90;91.00;;;;;;5044365;28;19913;-70
2023/05/06 10:58:03;;;;;;;;;;;16.90;90.90;;;;;;5045005;28;19986;-70
2023/05/06 11:00:32;;;;;;;;;;;17.10;90.80;;;;;;5044908;28;19962;-69
2023/05/06 11:03:05;;;;;;;;;;;17.20;90.70;;;;;;5044429;28;19936;-70
2023/05/06 11:05:31;;;;;;;;;;;17.30;90.60;;;;;;5044602;28;20649;-69
2023/05/06 11:08:07;;;;;;;;;;;17.50;90.40;;;;;;5044680;28;19919;-69
2023/05/06 11:10:33;;;;;;;;;;;17.70;90.20;;;;;;5044560;28;19913;-69
2023/05/06 11:13:19;;;;;;;;;;;17.80;90.00;;;;;;5044038;28;19916;-69
2023/05/06 11:15:45;;;;;;;;;;;18.00;89.70;;;;;;5043936;28;19928;-69
2023/05/06 11:18:26;;;;;;;;;;;18.10;90.00;;;;;;5044630;28;20272;-70
2023/05/06 11:21:04;;;;;;;;;;;18.20;89.70;;;;;;5044453;28;20254;-69
2023/05/06 11:23:41;;;;;;;;;;;18.30;89.40;;;;;;5044033;28;20035;-70
2023/05/06 11:26:07;;;;;;;;;;;18.30;89.30;;;;;;5044827;28;19936;-70
2023/05/06 11:28:33;;;;;;;;;;;18.40;89.30;;;;;;5044383;28;19913;-70
2023/05/06 11:30:59;;;;;;;;;;;18.30;89.40;;;;;;5044615;28;19989;-70
2023/05/06 11:33:26;;;;;;;;;;;18.40;89.80;;;;;;5043997;28;20538;-70
2023/05/06 11:35:52;;;;;;;;;;;18.50;89.90;;;;;;5044662;28;20367;-70
2023/05/06 11:38:17;;;;;;;;;;;18.70;90.00;;;;;;5044455;28;19954;-70
2023/05/06 11:40:43;;;;;;;;;;;18.70;89.70;;;;;;5044279;28;20009;-70
2023/05/06 11:43:09;;;;;;;;;;;18.70;89.60;;;;;;5026092;28;19953;-70
2023/05/06 11:45:47;;;;;;;;;;;18.70;89.60;;;;;;5044411;28;20565;-69
2023/05/06 11:48:16;;;;;;;;;;;18.70;89.70;;;;;;5044309;28;20001;-69
2023/05/06 11:50:46;;;;;;;;;;;18.90;90.00;;;;;;5046218;28;19909;-70
2023/05/06 11:53:12;;;;;;;;;;;18.90;89.60;;;;;;5047680;28;19920;-70
2023/05/06 11:55:37;;;;;;;;;;;19.10;89.00;;;;;;5044113;28;19915;-69
2023/05/06 11:58:03;;;;;;;;;;;19.20;89.10;;;;;;5047590;28;20289;-70
2023/05/06 12:00:28;;;;;;;;;;;19.30;89.10;;;;;;5047906;28;19913;-70
2023/05/06 12:02:55;;;;;;;;;;;19.30;88.70;;;;;;5047091;28;20000;-70
2023/05/06 12:05:23;;;;;;;;;;;19.40;88.70;;;;;;5047674;28;20281;-70
2023/05/06 12:07:49;;;;;;;;;;;19.50;88.90;;;;;;5047460;28;19924;-70
2023/05/06 12:10:16;;;;;;;;;;;19.50;89.50;;;;;;5047805;28;19913;-70
2023/05/06 12:12:41;;;;;;;;;;;19.70;88.80;;;;;;5047095;28;20039;-70
2023/05/06 12:15:08;;;;;;;;;;;19.80;88.10;;;;;;5047638;28;20014;-70
2023/05/06 12:17:33;;;;;;;;;;;19.90;87.90;;;;;;5046981;28;20357;-70
2023/05/06 12:19:59;;;;;;;;;;;19.90;87.50;;;;;;5045409;28;19919;-70
2023/05/06 12:22:24;;;;;;;;;;;20.00;87.70;;;;;;5047054;28;19928;-70
2023/05/06 12:24:50;;;;;;;;;;;19.90;87.80;;;;;;5047467;28;20408;-70
2023/05/06 12:27:34;;;;;;;;;;;20.00;88.30;;;;;;5048182;28;20037;-69
2023/05/06 12:30:01;;;;;;;;;;;19.90;88.40;;;;;;5028292;28;20003;-70
2023/05/06 12:32:26;;;;;;;;;;;20.00;87.90;;;;;;5027687;28;20546;-70
2023/05/06 12:34:52;;;;;;;;;;;20.10;87.80;;;;;;5027871;28;19914;-70
2023/05/06 12:37:26;;;;;;;;;;;20.20;86.90;;;;;;5025855;28;19967;-70
2023/05/06 12:39:51;;;;;;;;;;;20.30;86.50;;;;;;5028036;28;20389;-70
2023/05/06 12:42:21;;;;;;;;;;;20.30;86.30;;;;;;5044851;28;19952;-70
2023/05/06 12:44:47;;;;;;;;;;;20.40;86.10;;;;;;5047775;28;19916;-70
2023/05/06 12:47:20;;;;;;;;;;;20.40;85.90;;;;;;5047488;28;19909;-70
2023/05/06 12:49:45;;;;;;;;;;;20.40;85.80;;;;;;5046945;28;19999;-70
2023/05/06 12:52:11;;;;;;;;;;;20.50;85.90;;;;;;5045794;28;19996;-69
2023/05/06 12:54:36;;;;;;;;;;;20.40;85.90;;;;;;5041372;28;19944;-70
2023/05/06 12:57:02;;;;;;;;;;;20.50;85.90;;;;;;5027381;28;19957;-70
2023/05/06 12:59:28;;;;;;;;;;;20.50;85.50;;;;;;5046415;28;20384;-70
2023/05/06 13:01:54;;;;;;;;;;;20.50;85.20;;;;;;5022392;27;19928;-70
2023/05/06 13:04:20;;;;;;;;;;;20.50;85.20;;;;;;5041302;28;20003;-70
2023/05/06 13:06:45;;;;;;;;;;;20.60;85.20;;;;;;5044636;28;19944;-70
2023/05/06 13:09:11;;;;;;;;;;;20.60;85.40;;;;;;5038976;28;20421;-70
2023/05/06 13:11:36;;;;;;;;;;;20.60;85.50;;;;;;5042320;28;20003;-70
2023/05/06 13:14:02;;;;;;;;;;;20.60;85.30;;;;;;5043206;28;19951;-70
2023/05/06 13:16:28;;;;;;;;;;;20.60;85.80;;;;;;5043500;28;19912;-70
2023/05/06 13:18:54;;;;;;;;;;;20.70;85.80;;;;;;5042698;28;19917;-70
2023/05/06 13:21:19;;;;;;;;;;;20.70;85.70;;;;;;5043167;28;19927;-70
2023/05/06 13:23:46;;;;;;;;;;;20.70;85.80;;;;;;5044327;28;19921;-70
2023/05/06 13:26:12;;;;;;;;;;;20.70;85.50;;;;;;5046924;28;19992;-70
2023/05/06 13:28:38;;;;;;;;;;;20.70;85.70;;;;;;5042539;28;20011;-70
2023/05/06 13:31:04;;;;;;;;;;;20.80;85.70;;;;;;5039781;28;19928;-70
2023/05/06 13:33:30;;;;;;;;;;;20.80;85.50;;;;;;5044307;28;19921;-70
2023/05/06 13:35:55;;;;;;;;;;;20.80;85.30;;;;;;5066754;27;19917;-70
2023/05/06 13:38:21;;;;;;;;;;;20.80;85.40;;;;;;5054090;27;19944;-69
2023/05/06 13:40:50;;;;;;;;;;;20.90;85.10;;;;;;5037904;28;19928;-70
2023/05/06 13:43:16;;;;;;;;;;;20.90;84.80;;;;;;5030050;28;20269;-70
2023/05/06 13:45:43;;;;;;;;;;;21.00;84.80;;;;;;5044310;28;19913;-70
2023/05/06 13:48:09;;;;;;;;;;;21.10;84.40;;;;;;5045956;28;19908;-70
2023/05/06 13:50:36;;;;;;;;;;;21.20;84.70;;;;;;5038464;28;20321;-70
2023/05/06 13:53:02;;;;;;;;;;;21.30;84.40;;;;;;5025752;28;19916;-70
2023/05/06 13:55:27;;;;;;;;;;;21.40;84.20;;;;;;5041943;28;20491;-70
2023/05/06 13:57:53;;;;;;;;;;;21.40;84.20;;;;;;5039063;28;20023;-70
2023/05/06 14:00:18;;;;;;;;;;;21.40;84.30;;;;;;5043286;28;19919;-70
2023/05/06 14:02:44;;;;;;;;;;;21.30;84.70;;;;;;5041642;28;20610;-70
2023/05/06 14:05:09;;;;;;;;;;;21.30;84.50;;;;;;5045567;28;19913;-70
2023/05/06 14:07:35;;;;;;;;;;;21.40;84.60;;;;;;5039458;28;20029;-70
2023/05/06 14:10:00;;;;;;;;;;;21.40;84.20;;;;;;5044984;28;19917;-70
2023/05/06 14:12:26;;;;;;;;;;;21.40;84.10;;;;;;5024497;28;19916;-70